Terminal Aerodrome Forecast
Issued by NWS

Home | Current Version | Previous Version | Text Only | Print | Product List | Glossary On
Versions: 1 2 3 4 5 6 7 8 9 10 11 12 13
000
FTUS45 KREV 250533
TAFCXP
TAF
KCXP 250533Z 2506/2606 VRB05KT P6SM SCT250
     FM252100 11007KT P6SM SCT180
     FM260300 VRB03KT P6SM SCT180=

USA.gov is the U.S. government's official web portal to all federal, state and local government web resources and services.